Greenwd, Indiana
Current Conditions -  °F | °C
As of 4:54 PM on Friday 19 Dec 2014 (Local Time) from KIND Reporting Station
Overcast Overcast  
Wind Chill: 24°   Ceiling: 2400
Heat Index: 29°   Visibility: 9mi
Dew Point: 22°   Wind: 5mph
Humidity: 75%   Direction: 260°W
Pressure: 30.3"   Gusts: NA
Location:  39.5883°N, 86.07°W
Report Text: KIND 192154Z 26004KT 9SM OVC024 M02/M06 A3030 RMK AO2 SLP270 T10171056
Loading
Personal Weather Stations






























Interactive Weather Map New forecast layout! Learn more

10-Day Weather Forecast

Advertisements
Track Severe Weather on mobile